KARB

Ann Arbor Municipal Airport

Ann Arbor, Michigan, USA
METAR KARB 151253Z AUTO 17006KT 10SM BKN060 OVC085 M08/M12 A2989 RMK AO2 SLP141 T10831122
Observed Flight Rules
Dec-15 @ 12:53 UTC (an hour ago) Visual Flight Rules
Wind Visibility Clouds
170° at 6 knots 10 miles
  • Broken at 6,000' AGL
  • Overcast at 8,500' AGL
Temperatures Readings
Current -8°C / 18°F
Dewpoint -12°C / 10°F
Humidity 73%
Altimeter 29.89" Hg
Pressure 1014.1 hPa
Elevation 251
METAR KARB 151253Z AUTO 17006KT 10SM BKN060 OVC085 M08/M12 A2989 RMK AO2 SLP141 T10831122
Observed Flight Rules
Dec-15 @ 12:53 UTC
(an hour ago)
VFR
Wind Visibility
170° at 6 knots 10 miles
Clouds
  • Broken at 6,000' AGL
  • Overcast at 8,500' AGL
Temperature Dewpoint
-8°C / 18°F -12°C / 10°F
Humidity Altimeter Pressure
73% 29.89" Hg 1014.1 hPa